Bayport, Minnesota
Current Conditions -  °F | °C
As of 8:50 PM on Wednesday 22 Oct 2014 (Local Time) from K21D Reporting Station
Scattered Clouds Scattered Clouds  
Wind Chill: 55°   Ceiling: Unl
Heat Index: 55°   Visibility: 10mi
Dew Point: 41°   Wind: 14mph
Humidity: 58%   Direction: 160°SSE
Pressure: 30.06"   Gusts: 18mph
Location:  45.02°N, 92.78°W
Report Text: K21D 230150Z AUTO 16012G16KT 10SM SCT070 13/05 A3006 RMK AO2
Loading
Personal Weather Stations






























Interactive Weather Map
Tropical Storm Tracking
New forecast layout! Learn more

10-Day Weather Forecast

Advertisements
Track Severe Weather on mobile